sensor_id;sensor_type;location;lat;lon;timestamp;pressure;altitude;pressure_sealevel;temperature;humidity
62057;BME280;48016;50.284;18.860;2023-04-24T00:00:40;97263.36;;;13.00;54.07
62057;BME280;48016;50.284;18.860;2023-04-24T00:03:23;97259.15;;;13.02;53.85
62057;BME280;48016;50.284;18.860;2023-04-24T00:05:50;97257.05;;;13.03;53.78
62057;BME280;48016;50.284;18.860;2023-04-24T00:08:18;97255.52;;;13.05;53.54
62057;BME280;48016;50.284;18.860;2023-04-24T00:10:44;97248.02;;;13.05;53.26
62057;BME280;48016;50.284;18.860;2023-04-24T00:13:11;97249.13;;;13.07;52.89
62057;BME280;48016;50.284;18.860;2023-04-24T00:15:38;97246.23;;;13.09;52.66
62057;BME280;48016;50.284;18.860;2023-04-24T00:18:04;97248.30;;;13.11;52.44
62057;BME280;48016;50.284;18.860;2023-04-24T00:20:31;97246.00;;;13.13;52.25
62057;BME280;48016;50.284;18.860;2023-04-24T00:23:02;97242.55;;;13.14;52.16
62057;BME280;48016;50.284;18.860;2023-04-24T00:25:28;97237.38;;;13.15;51.83
62057;BME280;48016;50.284;18.860;2023-04-24T00:27:55;97235.27;;;13.16;51.49
62057;BME280;48016;50.284;18.860;2023-04-24T00:30:22;97232.95;;;13.18;51.16
62057;BME280;48016;50.284;18.860;2023-04-24T00:32:49;97231.36;;;13.19;51.34
62057;BME280;48016;50.284;18.860;2023-04-24T00:35:15;97224.89;;;13.19;51.09
62057;BME280;48016;50.284;18.860;2023-04-24T00:37:42;97224.92;;;13.20;51.00
62057;BME280;48016;50.284;18.860;2023-04-24T00:40:09;97218.10;;;13.20;51.06
62057;BME280;48016;50.284;18.860;2023-04-24T00:42:36;97214.85;;;13.19;51.19
62057;BME280;48016;50.284;18.860;2023-04-24T00:45:04;97213.30;;;13.17;51.10
62057;BME280;48016;50.284;18.860;2023-04-24T00:47:32;97213.11;;;13.16;50.71
62057;BME280;48016;50.284;18.860;2023-04-24T00:50:02;97208.94;;;13.16;50.37
62057;BME280;48016;50.284;18.860;2023-04-24T00:52:28;97212.03;;;13.16;50.50
62057;BME280;48016;50.284;18.860;2023-04-24T00:54:57;97209.03;;;13.13;50.35
62057;BME280;48016;50.284;18.860;2023-04-24T00:57:24;97205.16;;;13.11;50.20
62057;BME280;48016;50.284;18.860;2023-04-24T00:59:52;97200.70;;;13.08;50.25
62057;BME280;48016;50.284;18.860;2023-04-24T01:02:19;97204.20;;;13.07;50.18
62057;BME280;48016;50.284;18.860;2023-04-24T01:04:48;97205.07;;;13.04;49.89
62057;BME280;48016;50.284;18.860;2023-04-24T01:07:17;97202.67;;;13.01;49.93
62057;BME280;48016;50.284;18.860;2023-04-24T01:09:45;97199.23;;;12.99;49.80
62057;BME280;48016;50.284;18.860;2023-04-24T01:12:13;97197.19;;;12.98;49.52
62057;BME280;48016;50.284;18.860;2023-04-24T01:14:40;97195.65;;;12.96;49.58
62057;BME280;48016;50.284;18.860;2023-04-24T01:17:07;97188.40;;;12.95;49.20
62057;BME280;48016;50.284;18.860;2023-04-24T01:19:35;97189.45;;;12.94;49.45
62057;BME280;48016;50.284;18.860;2023-04-24T01:22:02;97188.86;;;12.93;49.29
62057;BME280;48016;50.284;18.860;2023-04-24T01:24:30;97187.43;;;12.91;49.30
62057;BME280;48016;50.284;18.860;2023-04-24T01:26:56;97182.15;;;12.88;49.15
62057;BME280;48016;50.284;18.860;2023-04-24T01:29:23;97180.18;;;12.87;49.20
62057;BME280;48016;50.284;18.860;2023-04-24T01:31:50;97179.72;;;12.85;49.01
62057;BME280;48016;50.284;18.860;2023-04-24T01:34:16;97177.36;;;12.83;48.99
62057;BME280;48016;50.284;18.860;2023-04-24T01:36:45;97180.52;;;12.82;48.92
62057;BME280;48016;50.284;18.860;2023-04-24T01:39:12;97181.92;;;12.79;48.88
62057;BME280;48016;50.284;18.860;2023-04-24T01:41:39;97177.02;;;12.78;48.88
62057;BME280;48016;50.284;18.860;2023-04-24T01:44:06;97173.48;;;12.76;48.91
62057;BME280;48016;50.284;18.860;2023-04-24T01:46:32;97170.31;;;12.73;48.86
62057;BME280;48016;50.284;18.860;2023-04-24T01:49:01;97171.23;;;12.71;48.80
62057;BME280;48016;50.284;18.860;2023-04-24T01:51:28;97167.96;;;12.68;48.84
62057;BME280;48016;50.284;18.860;2023-04-24T01:53:54;97165.24;;;12.64;48.80
62057;BME280;48016;50.284;18.860;2023-04-24T01:56:22;97167.27;;;12.62;48.83
62057;BME280;48016;50.284;18.860;2023-04-24T01:58:52;97163.63;;;12.61;48.69
62057;BME280;48016;50.284;18.860;2023-04-24T02:01:20;97163.65;;;12.59;48.80
62057;BME280;48016;50.284;18.860;2023-04-24T02:03:47;97160.13;;;12.54;48.85
62057;BME280;48016;50.284;18.860;2023-04-24T02:06:14;97159.10;;;12.52;48.73
62057;BME280;48016;50.284;18.860;2023-04-24T02:08:40;97160.54;;;12.50;48.89
62057;BME280;48016;50.284;18.860;2023-04-24T02:11:09;97159.98;;;12.48;48.90
62057;BME280;48016;50.284;18.860;2023-04-24T02:13:36;97160.98;;;12.46;48.87
62057;BME280;48016;50.284;18.860;2023-04-24T02:16:02;97157.23;;;12.43;48.86
62057;BME280;48016;50.284;18.860;2023-04-24T02:18:29;97154.92;;;12.41;48.85
62057;BME280;48016;50.284;18.860;2023-04-24T02:20:56;97151.27;;;12.40;48.88
62057;BME280;48016;50.284;18.860;2023-04-24T02:23:23;97147.83;;;12.38;48.85
62057;BME280;48016;50.284;18.860;2023-04-24T02:25:49;97144.89;;;12.34;48.91
62057;BME280;48016;50.284;18.860;2023-04-24T02:28:16;97144.77;;;12.31;48.84
62057;BME280;48016;50.284;18.860;2023-04-24T02:30:42;97144.38;;;12.30;48.91
62057;BME280;48016;50.284;18.860;2023-04-24T02:33:09;97139.52;;;12.28;48.76
62057;BME280;48016;50.284;18.860;2023-04-24T02:35:36;97137.52;;;12.27;48.73
62057;BME280;48016;50.284;18.860;2023-04-24T02:38:03;97133.58;;;12.27;48.73
62057;BME280;48016;50.284;18.860;2023-04-24T02:40:30;97136.13;;;12.26;48.61
62057;BME280;48016;50.284;18.860;2023-04-24T02:42:56;97135.63;;;12.27;48.38
62057;BME280;48016;50.284;18.860;2023-04-24T02:45:23;97136.16;;;12.28;48.46
62057;BME280;48016;50.284;18.860;2023-04-24T02:47:49;97135.55;;;12.29;48.32
62057;BME280;48016;50.284;18.860;2023-04-24T02:50:16;97136.30;;;12.29;48.19
62057;BME280;48016;50.284;18.860;2023-04-24T02:52:42;97132.71;;;12.30;48.19
62057;BME280;48016;50.284;18.860;2023-04-24T02:55:09;97133.52;;;12.32;48.18
62057;BME280;48016;50.284;18.860;2023-04-24T02:57:36;97130.46;;;12.32;48.03
62057;BME280;48016;50.284;18.860;2023-04-24T03:00:03;97131.00;;;12.32;48.02
62057;BME280;48016;50.284;18.860;2023-04-24T03:02:32;97131.43;;;12.32;48.00
62057;BME280;48016;50.284;18.860;2023-04-24T03:04:59;97131.55;;;12.31;48.09
62057;BME280;48016;50.284;18.860;2023-04-24T03:07:26;97132.47;;;12.31;48.06
62057;BME280;48016;50.284;18.860;2023-04-24T03:09:53;97133.95;;;12.31;48.05
62057;BME280;48016;50.284;18.860;2023-04-24T03:12:19;97131.02;;;12.30;48.05
62057;BME280;48016;50.284;18.860;2023-04-24T03:14:46;97132.13;;;12.29;48.00
62057;BME280;48016;50.284;18.860;2023-04-24T03:17:12;97132.74;;;12.28;48.05
62057;BME280;48016;50.284;18.860;2023-04-24T03:19:39;97132.70;;;12.27;48.08
62057;BME280;48016;50.284;18.860;2023-04-24T03:22:05;97130.12;;;12.26;47.93
62057;BME280;48016;50.284;18.860;2023-04-24T03:24:32;97131.69;;;12.26;47.90
62057;BME280;48016;50.284;18.860;2023-04-24T03:26:59;97129.79;;;12.27;48.05
62057;BME280;48016;50.284;18.860;2023-04-24T03:29:26;97129.35;;;12.27;47.87
62057;BME280;48016;50.284;18.860;2023-04-24T03:31:53;97130.48;;;12.28;47.96
62057;BME280;48016;50.284;18.860;2023-04-24T03:34:19;97130.78;;;12.29;47.82
62057;BME280;48016;50.284;18.860;2023-04-24T03:36:46;97130.35;;;12.32;47.57
62057;BME280;48016;50.284;18.860;2023-04-24T03:39:15;97129.46;;;12.34;47.50
62057;BME280;48016;50.284;18.860;2023-04-24T03:41:42;97126.21;;;12.37;47.34
62057;BME280;48016;50.284;18.860;2023-04-24T03:44:08;97127.73;;;12.40;47.02
62057;BME280;48016;50.284;18.860;2023-04-24T03:46:35;97127.84;;;12.44;47.01
62057;BME280;48016;50.284;18.860;2023-04-24T03:49:01;97128.95;;;12.49;46.83
62057;BME280;48016;50.284;18.860;2023-04-24T03:51:28;97130.09;;;12.52;46.68
62057;BME280;48016;50.284;18.860;2023-04-24T03:53:56;97126.02;;;12.56;46.49
62057;BME280;48016;50.284;18.860;2023-04-24T03:56:23;97129.16;;;12.59;46.28
62057;BME280;48016;50.284;18.860;2023-04-24T03:58:49;97128.98;;;12.63;46.19
62057;BME280;48016;50.284;18.860;2023-04-24T04:01:16;97132.94;;;12.67;45.99
62057;BME280;48016;50.284;18.860;2023-04-24T04:03:42;97131.11;;;12.72;46.00
62057;BME280;48016;50.284;18.860;2023-04-24T04:06:09;97130.29;;;12.77;45.75
62057;BME280;48016;50.284;18.860;2023-04-24T04:08:37;97133.70;;;12.83;45.74
62057;BME280;48016;50.284;18.860;2023-04-24T04:11:04;97128.20;;;12.90;45.59
62057;BME280;48016;50.284;18.860;2023-04-24T04:13:30;97130.71;;;12.96;45.32
62057;BME280;48016;50.284;18.860;2023-04-24T04:15:57;97128.73;;;13.03;45.38
62057;BME280;48016;50.284;18.860;2023-04-24T04:18:24;97129.50;;;13.12;45.26
62057;BME280;48016;50.284;18.860;2023-04-24T04:20:50;97130.57;;;13.22;45.06
62057;BME280;48016;50.284;18.860;2023-04-24T04:23:17;97130.85;;;13.28;44.79
62057;BME280;48016;50.284;18.860;2023-04-24T04:25:43;97128.53;;;13.33;44.72
62057;BME280;48016;50.284;18.860;2023-04-24T04:28:10;97130.56;;;13.37;44.59
62057;BME280;48016;50.284;18.860;2023-04-24T04:30:36;97129.04;;;13.46;44.45
62057;BME280;48016;50.284;18.860;2023-04-24T04:33:04;97130.63;;;13.62;44.15
62057;BME280;48016;50.284;18.860;2023-04-24T04:35:31;97126.13;;;13.77;44.03
62057;BME280;48016;50.284;18.860;2023-04-24T04:37:57;97127.34;;;13.91;43.89
62057;BME280;48016;50.284;18.860;2023-04-24T04:40:25;97126.19;;;14.04;43.68
62057;BME280;48016;50.284;18.860;2023-04-24T04:42:51;97126.96;;;14.16;43.60
62057;BME280;48016;50.284;18.860;2023-04-24T04:45:19;97128.48;;;14.25;43.28
62057;BME280;48016;50.284;18.860;2023-04-24T04:47:47;97124.68;;;14.34;42.82
62057;BME280;48016;50.284;18.860;2023-04-24T04:50:14;97123.58;;;14.44;42.57
62057;BME280;48016;50.284;18.860;2023-04-24T04:52:40;97123.96;;;14.54;42.76
62057;BME280;48016;50.284;18.860;2023-04-24T04:55:07;97125.29;;;14.65;42.39
62057;BME280;48016;50.284;18.860;2023-04-24T04:57:34;97125.05;;;14.75;42.39
62057;BME280;48016;50.284;18.860;2023-04-24T05:00:00;97125.34;;;14.88;41.92
62057;BME280;48016;50.284;18.860;2023-04-24T05:02:27;97128.50;;;15.02;41.78
62057;BME280;48016;50.284;18.860;2023-04-24T05:04:54;97129.85;;;15.10;41.72
62057;BME280;48016;50.284;18.860;2023-04-24T05:07:21;97130.04;;;15.17;41.73
62057;BME280;48016;50.284;18.860;2023-04-24T05:09:47;97132.85;;;15.22;41.75
62057;BME280;48016;50.284;18.860;2023-04-24T05:12:14;97130.70;;;15.29;41.72
62057;BME280;48016;50.284;18.860;2023-04-24T05:14:41;97132.34;;;15.37;41.62
62057;BME280;48016;50.284;18.860;2023-04-24T05:17:07;97133.97;;;15.45;41.42
62057;BME280;48016;50.284;18.860;2023-04-24T05:19:34;97133.14;;;15.52;41.32
62057;BME280;48016;50.284;18.860;2023-04-24T05:22:02;97135.69;;;15.60;41.21
62057;BME280;48016;50.284;18.860;2023-04-24T05:24:30;97129.30;;;15.66;41.03
62057;BME280;48016;50.284;18.860;2023-04-24T05:26:57;97131.21;;;15.71;41.15
62057;BME280;48016;50.284;18.860;2023-04-24T05:29:25;97128.88;;;15.74;40.71
62057;BME280;48016;50.284;18.860;2023-04-24T05:31:52;97131.30;;;15.78;40.65
62057;BME280;48016;50.284;18.860;2023-04-24T05:34:19;97129.69;;;15.80;40.84
62057;BME280;48016;50.284;18.860;2023-04-24T05:36:45;97121.87;;;15.85;41.07
62057;BME280;48016;50.284;18.860;2023-04-24T05:39:12;97125.90;;;15.91;41.01
62057;BME280;48016;50.284;18.860;2023-04-24T05:41:39;97122.29;;;15.98;40.92
62057;BME280;48016;50.284;18.860;2023-04-24T05:44:06;97119.83;;;16.08;40.84
62057;BME280;48016;50.284;18.860;2023-04-24T05:46:32;97122.38;;;16.38;40.66
62057;BME280;48016;50.284;18.860;2023-04-24T05:48:59;97118.95;;;16.75;40.22
62057;BME280;48016;50.284;18.860;2023-04-24T05:51:25;97123.67;;;17.09;39.94
62057;BME280;48016;50.284;18.860;2023-04-24T05:53:52;97121.15;;;17.57;38.85
62057;BME280;48016;50.284;18.860;2023-04-24T05:56:19;97117.66;;;18.08;38.53
62057;BME280;48016;50.284;18.860;2023-04-24T05:58:46;97116.45;;;18.36;37.70
62057;BME280;48016;50.284;18.860;2023-04-24T06:01:13;97115.30;;;18.71;36.96
62057;BME280;48016;50.284;18.860;2023-04-24T06:03:42;97110.59;;;19.15;36.13
62057;BME280;48016;50.284;18.860;2023-04-24T06:06:09;97109.96;;;19.60;35.60
62057;BME280;48016;50.284;18.860;2023-04-24T06:08:36;97110.21;;;20.05;35.07
62057;BME280;48016;50.284;18.860;2023-04-24T06:11:02;97106.63;;;20.43;34.44
62057;BME280;48016;50.284;18.860;2023-04-24T06:13:29;97108.74;;;20.75;33.48
62057;BME280;48016;50.284;18.860;2023-04-24T06:15:56;97105.84;;;20.99;32.68
62057;BME280;48016;50.284;18.860;2023-04-24T06:18:22;97103.13;;;21.25;32.20
62057;BME280;48016;50.284;18.860;2023-04-24T06:20:49;97105.77;;;21.50;32.25
62057;BME280;48016;50.284;18.860;2023-04-24T06:23:16;97105.36;;;21.79;31.79
62057;BME280;48016;50.284;18.860;2023-04-24T06:25:42;97103.75;;;22.15;30.66
62057;BME280;48016;50.284;18.860;2023-04-24T06:28:09;97103.33;;;22.51;30.33
62057;BME280;48016;50.284;18.860;2023-04-24T06:30:35;97098.11;;;22.81;30.99
62057;BME280;48016;50.284;18.860;2023-04-24T06:33:02;97096.69;;;22.93;29.97
62057;BME280;48016;50.284;18.860;2023-04-24T06:35:29;97095.50;;;23.04;29.59
62057;BME280;48016;50.284;18.860;2023-04-24T06:37:56;97088.70;;;23.20;29.50
62057;BME280;48016;50.284;18.860;2023-04-24T06:40:23;97090.55;;;23.36;28.88
62057;BME280;48016;50.284;18.860;2023-04-24T06:42:49;97091.21;;;23.53;29.14
62057;BME280;48016;50.284;18.860;2023-04-24T06:45:16;97095.00;;;23.58;28.51
62057;BME280;48016;50.284;18.860;2023-04-24T06:47:43;97090.86;;;23.60;28.57
62057;BME280;48016;50.284;18.860;2023-04-24T06:50:09;97093.54;;;23.60;28.25
62057;BME280;48016;50.284;18.860;2023-04-24T06:52:36;97094.55;;;23.69;27.46
62057;BME280;48016;50.284;18.860;2023-04-24T06:55:03;97093.48;;;23.75;27.67
62057;BME280;48016;50.284;18.860;2023-04-24T06:57:31;97091.68;;;23.86;27.79
62057;BME280;48016;50.284;18.860;2023-04-24T06:59:57;97092.29;;;23.96;27.45
62057;BME280;48016;50.284;18.860;2023-04-24T07:02:25;97093.02;;;23.92;26.90
62057;BME280;48016;50.284;18.860;2023-04-24T07:04:51;97092.81;;;23.99;26.71
62057;BME280;48016;50.284;18.860;2023-04-24T07:07:19;97085.60;;;24.13;27.02
62057;BME280;48016;50.284;18.860;2023-04-24T07:09:45;97084.69;;;24.21;27.37
62057;BME280;48016;50.284;18.860;2023-04-24T07:12:12;97085.15;;;24.21;26.70
62057;BME280;48016;50.284;18.860;2023-04-24T07:14:39;97082.42;;;24.06;26.43
62057;BME280;48016;50.284;18.860;2023-04-24T07:17:06;97081.73;;;23.90;26.22
62057;BME280;48016;50.284;18.860;2023-04-24T07:19:33;97075.02;;;23.84;26.85
62057;BME280;48016;50.284;18.860;2023-04-24T07:22:01;97077.39;;;23.84;27.40
62057;BME280;48016;50.284;18.860;2023-04-24T07:24:30;97081.23;;;23.94;27.03
62057;BME280;48016;50.284;18.860;2023-04-24T07:26:58;97077.89;;;24.03;26.03
62057;BME280;48016;50.284;18.860;2023-04-24T07:29:27;97073.88;;;23.93;25.99
62057;BME280;48016;50.284;18.860;2023-04-24T07:31:53;97072.78;;;23.73;25.89
62057;BME280;48016;50.284;18.860;2023-04-24T07:34:20;97070.60;;;23.60;25.83
62057;BME280;48016;50.284;18.860;2023-04-24T07:36:47;97065.87;;;23.65;26.79
62057;BME280;48016;50.284;18.860;2023-04-24T07:39:13;97069.95;;;23.73;26.25
62057;BME280;48016;50.284;18.860;2023-04-24T07:41:40;97071.48;;;23.65;26.24
62057;BME280;48016;50.284;18.860;2023-04-24T07:44:06;97070.65;;;23.44;25.82
62057;BME280;48016;50.284;18.860;2023-04-24T07:46:33;97074.67;;;23.20;26.34
62057;BME280;48016;50.284;18.860;2023-04-24T07:48:59;97071.98;;;23.02;26.44
62057;BME280;48016;50.284;18.860;2023-04-24T07:51:27;97068.67;;;22.90;26.96
62057;BME280;48016;50.284;18.860;2023-04-24T07:53:54;97065.23;;;22.82;26.54
62057;BME280;48016;50.284;18.860;2023-04-24T07:56:23;97064.45;;;22.87;27.54
62057;BME280;48016;50.284;18.860;2023-04-24T07:58:50;97060.73;;;23.02;28.24
62057;BME280;48016;50.284;18.860;2023-04-24T08:01:16;97057.35;;;23.21;28.22
62057;BME280;48016;50.284;18.860;2023-04-24T08:03:43;97060.58;;;23.30;27.10
62057;BME280;48016;50.284;18.860;2023-04-24T08:06:09;97055.70;;;23.25;26.70
62057;BME280;48016;50.284;18.860;2023-04-24T08:08:36;97052.33;;;23.21;27.25
62057;BME280;48016;50.284;18.860;2023-04-24T08:11:03;97045.27;;;23.29;27.50
62057;BME280;48016;50.284;18.860;2023-04-24T08:13:29;97047.17;;;23.39;27.69
62057;BME280;48016;50.284;18.860;2023-04-24T08:15:56;97050.45;;;23.47;27.28
62057;BME280;48016;50.284;18.860;2023-04-24T08:18:23;97048.53;;;23.50;26.35
62057;BME280;48016;50.284;18.860;2023-04-24T08:20:49;97049.99;;;23.58;26.99
62057;BME280;48016;50.284;18.860;2023-04-24T08:23:16;97048.10;;;23.63;26.78
62057;BME280;48016;50.284;18.860;2023-04-24T08:25:43;97047.95;;;23.64;27.08
62057;BME280;48016;50.284;18.860;2023-04-24T08:28:09;97047.48;;;23.65;26.83
62057;BME280;48016;50.284;18.860;2023-04-24T08:30:37;97043.30;;;23.58;26.85
62057;BME280;48016;50.284;18.860;2023-04-24T08:33:04;97045.22;;;23.50;26.30
62057;BME280;48016;50.284;18.860;2023-04-24T08:35:31;97041.81;;;23.34;26.38
62057;BME280;48016;50.284;18.860;2023-04-24T08:37:58;97042.53;;;23.24;27.45
62057;BME280;48016;50.284;18.860;2023-04-24T08:40:27;97042.21;;;23.25;27.95
62057;BME280;48016;50.284;18.860;2023-04-24T08:42:58;97044.00;;;23.23;27.15
62057;BME280;48016;50.284;18.860;2023-04-24T08:45:25;97039.39;;;23.16;27.66
62057;BME280;48016;50.284;18.860;2023-04-24T08:47:53;97038.78;;;23.08;27.42
62057;BME280;48016;50.284;18.860;2023-04-24T08:50:22;97033.17;;;22.98;27.95
62057;BME280;48016;50.284;18.860;2023-04-24T08:52:50;97033.94;;;22.85;27.98
62057;BME280;48016;50.284;18.860;2023-04-24T08:55:20;97037.38;;;22.70;28.60
62057;BME280;48016;50.284;18.860;2023-04-24T08:57:52;97037.05;;;22.74;28.39
62057;BME280;48016;50.284;18.860;2023-04-24T09:00:20;97035.39;;;22.82;28.79
62057;BME280;48016;50.284;18.860;2023-04-24T09:02:49;97031.90;;;22.89;29.18
62057;BME280;48016;50.284;18.860;2023-04-24T09:05:17;97036.56;;;22.94;29.24
62057;BME280;48016;50.284;18.860;2023-04-24T09:07:47;97034.63;;;22.92;29.38
62057;BME280;48016;50.284;18.860;2023-04-24T09:10:15;97035.40;;;22.87;29.23
62057;BME280;48016;50.284;18.860;2023-04-24T09:12:43;97034.09;;;22.89;29.50
62057;BME280;48016;50.284;18.860;2023-04-24T09:15:10;97034.05;;;22.86;28.67
62057;BME280;48016;50.284;18.860;2023-04-24T09:17:37;97035.75;;;22.81;28.76
62057;BME280;48016;50.284;18.860;2023-04-24T09:20:05;97034.56;;;22.71;28.75
62057;BME280;48016;50.284;18.860;2023-04-24T09:22:31;97032.42;;;22.66;29.30
62057;BME280;48016;50.284;18.860;2023-04-24T09:25:06;97026.63;;;22.64;29.72
62057;BME280;48016;50.284;18.860;2023-04-24T09:27:34;97027.62;;;22.67;29.89
62057;BME280;48016;50.284;18.860;2023-04-24T09:30:01;97027.23;;;22.62;29.86
62057;BME280;48016;50.284;18.860;2023-04-24T09:32:28;97025.80;;;22.57;29.18
62057;BME280;48016;50.284;18.860;2023-04-24T09:35:13;97021.83;;;22.51;29.07
62057;BME280;48016;50.284;18.860;2023-04-24T09:37:42;97018.85;;;22.52;29.84
62057;BME280;48016;50.284;18.860;2023-04-24T09:42:38;97013.79;;;22.63;29.95
62057;BME280;48016;50.284;18.860;2023-04-24T09:45:12;97008.83;;;22.80;30.06
62057;BME280;48016;50.284;18.860;2023-04-24T09:47:39;97000.15;;;23.00;30.12
62057;BME280;48016;50.284;18.860;2023-04-24T09:52:43;96996.94;;;23.11;29.83
62057;BME280;48016;50.284;18.860;2023-04-24T09:55:17;97001.92;;;23.27;30.20
62057;BME280;48016;50.284;18.860;2023-04-24T09:57:51;96999.19;;;23.44;30.24
62057;BME280;48016;50.284;18.860;2023-04-24T10:00:29;96995.86;;;23.58;30.24
62057;BME280;48016;50.284;18.860;2023-04-24T10:03:05;96991.98;;;23.63;29.21
62057;BME280;48016;50.284;18.860;2023-04-24T10:05:34;96993.84;;;23.54;29.72
62057;BME280;48016;50.284;18.860;2023-04-24T10:08:09;96993.33;;;23.47;29.81
62057;BME280;48016;50.284;18.860;2023-04-24T10:10:42;97000.58;;;23.37;30.05
62057;BME280;48016;50.284;18.860;2023-04-24T10:13:10;96992.98;;;23.30;29.67
62057;BME280;48016;50.284;18.860;2023-04-24T10:15:37;96998.51;;;23.11;29.21
62057;BME280;48016;50.284;18.860;2023-04-24T10:18:05;96994.80;;;23.01;29.86
62057;BME280;48016;50.284;18.860;2023-04-24T10:20:34;96993.19;;;22.98;30.07
62057;BME280;48016;50.284;18.860;2023-04-24T10:23:01;96995.11;;;22.96;30.10
62057;BME280;48016;50.284;18.860;2023-04-24T10:25:31;96992.50;;;23.00;30.19
62057;BME280;48016;50.284;18.860;2023-04-24T10:27:59;96991.90;;;23.07;29.73
62057;BME280;48016;50.284;18.860;2023-04-24T10:30:29;96992.80;;;22.99;29.90
62057;BME280;48016;50.284;18.860;2023-04-24T10:32:55;96991.83;;;22.98;30.16
62057;BME280;48016;50.284;18.860;2023-04-24T10:35:23;96996.69;;;23.00;30.33
62057;BME280;48016;50.284;18.860;2023-04-24T10:38:14;96988.80;;;23.06;30.31
62057;BME280;48016;50.284;18.860;2023-04-24T10:40:42;96996.23;;;23.02;30.47
62057;BME280;48016;50.284;18.860;2023-04-24T10:43:10;96993.83;;;22.99;30.59
62057;BME280;48016;50.284;18.860;2023-04-24T10:46:00;96993.32;;;22.89;30.30
62057;BME280;48016;50.284;18.860;2023-04-24T10:48:27;96993.84;;;22.75;30.41
62057;BME280;48016;50.284;18.860;2023-04-24T10:50:53;96992.55;;;22.64;30.50
62057;BME280;48016;50.284;18.860;2023-04-24T10:53:22;96991.00;;;22.61;30.77
62057;BME280;48016;50.284;18.860;2023-04-24T10:58:40;96988.44;;;22.37;30.60
62057;BME280;48016;50.284;18.860;2023-04-24T11:01:23;96984.87;;;22.13;30.76
62057;BME280;48016;50.284;18.860;2023-04-24T11:04:00;96979.75;;;21.98;30.99
62057;BME280;48016;50.284;18.860;2023-04-24T11:09:02;96990.19;;;21.60;31.76
62057;BME280;48016;50.284;18.860;2023-04-24T11:11:30;96988.11;;;21.38;31.91
62057;BME280;48016;50.284;18.860;2023-04-24T11:16:28;96999.46;;;20.85;32.42
62057;BME280;48016;50.284;18.860;2023-04-24T11:24:25;97015.71;;;20.17;33.58
62057;BME280;48016;50.284;18.860;2023-04-24T11:26:58;97015.43;;;20.05;33.94
62057;BME280;48016;50.284;18.860;2023-04-24T11:29:40;97018.60;;;19.92;34.05
62057;BME280;48016;50.284;18.860;2023-04-24T11:32:34;97015.80;;;19.82;34.19
62057;BME280;48016;50.284;18.860;2023-04-24T11:37:45;97018.07;;;19.47;35.06
62057;BME280;48016;50.284;18.860;2023-04-24T11:40:14;97015.52;;;19.30;35.12
62057;BME280;48016;50.284;18.860;2023-04-24T11:42:45;97019.30;;;19.14;35.78
62057;BME280;48016;50.284;18.860;2023-04-24T11:45:16;97017.96;;;19.09;36.12
62057;BME280;48016;50.284;18.860;2023-04-24T11:47:44;97016.74;;;19.05;36.22
62057;BME280;48016;50.284;18.860;2023-04-24T11:50:13;97019.86;;;19.00;36.24
62057;BME280;48016;50.284;18.860;2023-04-24T11:52:41;97016.46;;;18.94;36.51
62057;BME280;48016;50.284;18.860;2023-04-24T11:55:23;97014.70;;;18.88;36.74
62057;BME280;48016;50.284;18.860;2023-04-24T11:57:59;97012.61;;;18.82;36.97
62057;BME280;48016;50.284;18.860;2023-04-24T12:00:29;97009.22;;;18.76;37.09
62057;BME280;48016;50.284;18.860;2023-04-24T12:03:09;97008.04;;;18.72;37.22
62057;BME280;48016;50.284;18.860;2023-04-24T12:05:38;97006.02;;;18.73;37.29
62057;BME280;48016;50.284;18.860;2023-04-24T12:08:05;97007.85;;;18.78;37.58
62057;BME280;48016;50.284;18.860;2023-04-24T12:10:32;97004.45;;;18.82;37.77
62057;BME280;48016;50.284;18.860;2023-04-24T12:13:00;97004.09;;;18.82;37.65
62057;BME280;48016;50.284;18.860;2023-04-24T12:15:27;97002.58;;;18.88;37.91
62057;BME280;48016;50.284;18.860;2023-04-24T12:17:54;97006.82;;;18.94;38.07
62057;BME280;48016;50.284;18.860;2023-04-24T12:20:27;97003.48;;;18.92;38.01
62057;BME280;48016;50.284;18.860;2023-04-24T12:22:55;97004.27;;;18.90;38.21
62057;BME280;48016;50.284;18.860;2023-04-24T12:25:41;97004.98;;;18.92;38.56
62057;BME280;48016;50.284;18.860;2023-04-24T12:28:12;97003.39;;;18.93;38.66
62057;BME280;48016;50.284;18.860;2023-04-24T12:30:48;97007.48;;;18.95;38.96
62057;BME280;48016;50.284;18.860;2023-04-24T12:33:20;97006.44;;;18.96;39.17
62057;BME280;48016;50.284;18.860;2023-04-24T12:35:48;97004.27;;;18.97;39.18
62057;BME280;48016;50.284;18.860;2023-04-24T12:38:15;96998.70;;;18.99;39.62
62057;BME280;48016;50.284;18.860;2023-04-24T12:40:44;96999.92;;;19.03;39.66
62057;BME280;48016;50.284;18.860;2023-04-24T12:43:18;96998.56;;;19.07;39.63
62057;BME280;48016;50.284;18.860;2023-04-24T12:45:47;97001.41;;;19.10;39.92
62057;BME280;48016;50.284;18.860;2023-04-24T12:48:13;96994.97;;;19.14;39.94
62057;BME280;48016;50.284;18.860;2023-04-24T12:50:40;96998.41;;;19.17;39.95
62057;BME280;48016;50.284;18.860;2023-04-24T12:53:08;96998.18;;;19.19;40.14
62057;BME280;48016;50.284;18.860;2023-04-24T12:55:35;97001.58;;;19.17;40.16
62057;BME280;48016;50.284;18.860;2023-04-24T12:58:02;97001.02;;;19.20;40.29
62057;BME280;48016;50.284;18.860;2023-04-24T13:00:29;97000.33;;;19.20;40.30
62057;BME280;48016;50.284;18.860;2023-04-24T13:02:55;96996.75;;;19.11;40.37
62057;BME280;48016;50.284;18.860;2023-04-24T13:05:22;96995.95;;;19.08;40.54
62057;BME280;48016;50.284;18.860;2023-04-24T13:07:49;96987.61;;;19.07;40.57
62057;BME280;48016;50.284;18.860;2023-04-24T13:10:15;96984.15;;;19.06;40.62
62057;BME280;48016;50.284;18.860;2023-04-24T13:12:42;96981.45;;;19.08;40.84
62057;BME280;48016;50.284;18.860;2023-04-24T13:15:11;96982.73;;;19.09;40.97